< < Back
Terminal Aerodrome Forecast


Current Version              Previous Versions:   1  2  3  4  5  6  7  8  9  

Terminal Aerodrome Forecast

732
FTUS44 KOHX 011700
TAFCSV
TAF
KCSV 011720Z 0118/0218 23007G15KT P6SM FEW035
     FM020000 19003KT P6SM SKC
     FM021600 25007G15KT P6SM SCT035=

Latest METAR

202
SAUS70 KWBC 012000 RRS
MTRCSV
METAR KCSV 011953Z AUTO 25009G18KT 10SM FEW042 29/19 A3012 RMK AO2
SLP176 T02940189


USA.gov is the U.S. government's official web portal to all federal, state and local government web resources and services.